createdAt,value
2019-04-23T00:02:18.610Z,18.90
2019-04-23T00:04:47.954Z,22.67
2019-04-23T00:07:26.676Z,22.80
2019-04-23T00:09:57.143Z,20.08
2019-04-23T00:12:30.095Z,20.80
2019-04-23T00:15:09.253Z,21.20
2019-04-23T00:17:21.386Z,18.92
2019-04-23T00:19:56.056Z,23.30
2019-04-23T00:22:31.362Z,23.43
2019-04-23T00:27:35.295Z,23.40
2019-04-23T00:30:04.493Z,21.37
2019-04-23T00:32:44.660Z,24.90
2019-04-23T00:35:00.725Z,19.05
2019-04-23T00:37:31.381Z,21.57
2019-04-23T00:39:56.700Z,21.73
2019-04-23T00:42:35.014Z,23.52
2019-04-23T00:45:03.365Z,19.82
2019-04-23T00:50:22.299Z,21.05
2019-04-23T00:52:37.151Z,22.23
2019-04-23T00:57:35.942Z,23.27
2019-04-23T01:00:31.320Z,19.37
2019-04-23T01:02:37.556Z,21.40
2019-04-23T01:05:14.787Z,25.27
2019-04-23T01:07:41.595Z,23.18
2019-04-23T01:10:15.102Z,23.50
2019-04-23T01:12:46.454Z,23.83
2019-04-23T01:15:18.846Z,24.18
2019-04-23T01:17:47.495Z,23.47
2019-04-23T01:20:24.598Z,18.65
2019-04-23T01:22:42.165Z,19.35
2019-04-23T01:25:27.861Z,18.95
2019-04-23T01:28:13.882Z,20.10
2019-04-23T01:30:46.892Z,19.07
2019-04-23T01:33:18.381Z,17.75
2019-04-23T01:35:51.099Z,22.00
2019-04-23T01:38:21.953Z,22.40
2019-04-23T01:41:01.805Z,21.03
2019-04-23T01:43:16.740Z,21.17
2019-04-23T01:45:56.174Z,25.97
2019-04-23T01:48:19.976Z,22.37
2019-04-23T01:53:19.490Z,24.67
2019-04-23T01:55:52.747Z,28.17
2019-04-23T01:58:32.245Z,22.07
2019-04-23T02:00:54.529Z,26.15
2019-04-23T02:03:26.610Z,24.65
2019-04-23T02:05:55.795Z,22.48
2019-04-23T02:08:39.902Z,27.85
2019-04-23T02:10:56.329Z,24.32
2019-04-23T02:13:31.241Z,19.35
2019-04-23T02:15:53.472Z,24.80
2019-04-23T02:18:45.500Z,23.57
2019-04-23T02:23:57.153Z,19.23
2019-04-23T02:26:43.912Z,21.53
2019-04-23T02:29:14.540Z,23.93
2019-04-23T02:31:57.657Z,21.93
2019-04-23T02:34:21.225Z,21.00
2019-04-23T02:36:55.078Z,26.40
2019-04-23T02:39:03.571Z,25.43
2019-04-23T02:41:46.397Z,27.52
2019-04-23T02:46:43.835Z,28.93
2019-04-23T02:51:48.930Z,27.30
2019-04-23T02:56:46.700Z,27.43
2019-04-23T02:59:21.412Z,26.55
2019-04-23T03:01:39.727Z,26.73
2019-04-23T03:04:19.685Z,27.07
2019-04-23T03:06:48.139Z,26.63
2019-04-23T03:09:20.595Z,30.05
2019-04-23T03:11:53.989Z,30.00
2019-04-23T03:14:18.706Z,28.90
2019-04-23T03:22:07.420Z,26.90
2019-04-23T03:24:43.575Z,26.93
2019-04-23T03:27:17.437Z,29.00
2019-04-23T03:37:32.187Z,26.62
2019-04-23T03:42:38.707Z,30.23
2019-04-23T03:45:09.447Z,32.60
2019-04-23T03:47:32.095Z,26.35
2019-04-23T03:50:05.247Z,27.05
2019-04-23T03:52:35.473Z,27.52
2019-04-23T03:55:05.222Z,29.27
2019-04-23T03:57:30.943Z,28.60
2019-04-23T04:05:01.296Z,28.93
2019-04-23T04:10:00.018Z,23.87
2019-04-23T04:12:39.950Z,27.54
2019-04-23T04:15:18.527Z,28.87
2019-04-23T04:17:37.617Z,25.30
2019-04-23T04:20:19.843Z,28.02
2019-04-23T04:25:14.568Z,24.15
2019-04-23T04:27:53.790Z,27.58
2019-04-23T04:30:27.714Z,25.23
2019-04-23T04:32:53.429Z,23.92
2019-04-23T04:42:41.716Z,24.20
2019-04-23T04:50:34.991Z,29.48
2019-04-23T04:52:58.308Z,27.30
2019-04-23T05:00:20.401Z,25.57
2019-04-23T05:10:25.185Z,30.08
2019-04-23T05:12:52.549Z,33.10
2019-04-23T05:18:08.432Z,37.33
2019-04-23T05:20:37.340Z,35.95
2019-04-23T05:23:16.374Z,42.45
2019-04-23T05:25:34.645Z,33.42
2019-04-23T05:28:08.004Z,42.93
2019-04-23T05:30:43.000Z,42.06
2019-04-23T05:36:04.865Z,29.40
2019-04-23T05:40:55.547Z,38.80
2019-04-23T05:43:10.387Z,29.57
2019-04-23T05:45:34.379Z,36.42
2019-04-23T05:48:13.450Z,30.72
2019-04-23T05:50:50.642Z,31.63
2019-04-23T05:55:43.089Z,39.17
2019-04-23T05:58:08.633Z,30.43
2019-04-23T06:00:51.565Z,27.70
2019-04-23T06:03:16.029Z,38.47
2019-04-23T06:05:49.845Z,34.80
2019-04-23T06:08:21.581Z,32.28
2019-04-23T06:10:54.346Z,26.62
2019-04-23T06:13:22.495Z,26.27
2019-04-23T06:15:44.044Z,22.67
2019-04-23T06:18:28.544Z,32.78
2019-04-23T06:23:31.424Z,20.65
2019-04-23T06:26:10.078Z,21.33
2019-04-23T06:28:24.648Z,18.62
2019-04-23T06:30:54.430Z,18.90
2019-04-23T06:33:28.559Z,21.62
2019-04-23T06:35:50.354Z,23.87
2019-04-23T06:40:55.410Z,25.30
2019-04-23T06:43:47.079Z,21.87
2019-04-23T06:46:13.426Z,26.68
2019-04-23T06:48:40.880Z,28.23
2019-04-23T06:53:37.448Z,30.12
2019-04-23T06:56:23.391Z,27.30
2019-04-23T06:58:42.911Z,29.00
2019-04-23T07:01:15.174Z,39.40
2019-04-23T07:03:51.820Z,30.53
2019-04-23T07:06:29.816Z,25.50
2019-04-23T07:11:20.101Z,25.70
2019-04-23T07:18:47.031Z,27.23
2019-04-23T07:24:00.725Z,24.17
2019-04-23T07:26:30.477Z,22.80
2019-04-23T07:31:28.077Z,22.48
2019-04-23T07:36:31.074Z,22.95
2019-04-23T07:39:06.130Z,21.53
2019-04-23T07:41:37.816Z,20.53
2019-04-23T07:44:29.755Z,23.23
2019-04-23T07:47:07.784Z,23.07
2019-04-23T07:49:26.538Z,16.52
2019-04-23T07:52:03.079Z,25.82
2019-04-23T07:54:29.007Z,25.00
2019-04-23T07:57:07.580Z,20.52
2019-04-23T08:02:01.305Z,19.27
2019-04-23T08:04:36.889Z,13.50
2019-04-23T08:07:01.280Z,18.37
2019-04-23T08:09:35.929Z,36.48
2019-04-23T08:12:07.870Z,46.48
2019-04-23T08:14:34.343Z,56.68
2019-04-23T08:17:05.593Z,57.17
2019-04-23T08:19:40.993Z,32.63
2019-04-23T08:22:17.557Z,28.57
2019-04-23T08:24:45.381Z,21.95
2019-04-23T08:29:35.939Z,14.27
2019-04-23T08:32:15.010Z,13.93
2019-04-23T08:35:03.175Z,14.07
2019-04-23T08:42:33.099Z,16.30
2019-04-23T08:45:06.947Z,14.73
2019-04-23T08:47:26.165Z,16.42
2019-04-23T08:49:53.408Z,17.67
2019-04-23T08:55:11.362Z,19.82
2019-04-23T08:57:30.740Z,22.57
2019-04-23T09:00:09.125Z,21.62
2019-04-23T09:02:45.241Z,15.80
2019-04-23T09:05:02.651Z,20.10
2019-04-23T09:12:37.142Z,13.50
2019-04-23T09:14:58.348Z,16.45
2019-04-23T09:17:34.603Z,16.57
2019-04-23T09:20:13.368Z,12.68
2019-04-23T09:25:03.938Z,13.37
2019-04-23T09:27:33.133Z,13.85
2019-04-23T09:32:28.437Z,15.32
2019-04-23T09:35:15.499Z,15.58
2019-04-23T09:43:20.487Z,16.32
2019-04-23T09:46:04.464Z,18.80
2019-04-23T09:48:39.138Z,16.87
2019-04-23T09:51:02.623Z,18.30
2019-04-23T09:53:33.933Z,16.10
2019-04-23T09:56:02.976Z,12.25
2019-04-23T09:58:29.565Z,19.48
2019-04-23T10:01:19.617Z,18.25
2019-04-23T10:03:36.296Z,19.80
2019-04-23T10:05:59.737Z,13.15
2019-04-23T10:08:27.938Z,19.80
2019-04-23T10:10:51.348Z,15.03
2019-04-23T10:13:20.274Z,15.93
2019-04-23T10:15:51.484Z,22.60
2019-04-23T10:18:20.211Z,12.93
2019-04-23T10:20:49.235Z,18.47
2019-04-23T10:23:19.010Z,13.70
2019-04-23T10:25:49.826Z,18.00
2019-04-23T10:28:29.675Z,14.10
2019-04-23T10:31:00.579Z,16.20
2019-04-23T10:33:29.865Z,17.20
2019-04-23T10:36:03.235Z,19.40
2019-04-23T10:38:30.674Z,20.57
2019-04-23T10:41:00.166Z,21.07
2019-04-23T10:43:31.503Z,16.70
2019-04-23T10:46:20.411Z,17.00
2019-04-23T10:49:11.238Z,21.60
2019-04-23T10:54:26.423Z,19.92
2019-04-23T10:56:47.813Z,14.07
2019-04-23T11:02:23.986Z,22.75
2019-04-23T11:07:20.775Z,22.42
2019-04-23T11:09:52.833Z,20.00
2019-04-23T11:12:35.430Z,19.85
2019-04-23T11:14:58.475Z,21.57
2019-04-23T11:19:56.688Z,22.17
2019-04-23T11:24:59.450Z,26.57
2019-04-23T11:27:28.158Z,19.00
2019-04-23T11:37:37.962Z,24.30
2019-04-23T11:38:09.130Z,20.47
2019-04-23T11:42:32.321Z,24.82
2019-04-23T11:44:56.579Z,19.15
2019-04-23T11:48:05.260Z,20.23
2019-04-23T11:52:36.659Z,19.85
2019-04-23T11:55:08.441Z,26.33
2019-04-23T11:57:54.875Z,26.30
2019-04-23T11:59:59.042Z,23.07
2019-04-23T12:07:53.769Z,28.93
2019-04-23T12:10:30.016Z,22.20
2019-04-23T12:12:57.901Z,20.57
2019-04-23T12:15:39.625Z,20.70
2019-04-23T12:20:33.447Z,25.88
2019-04-23T12:23:06.322Z,24.72
2019-04-23T12:25:32.475Z,20.23
2019-04-23T12:27:46.946Z,20.95
2019-04-23T12:30:35.914Z,23.30
2019-04-23T12:33:20.358Z,21.37
2019-04-23T12:35:27.811Z,23.67
2019-04-23T12:38:03.698Z,20.08
2019-04-23T12:40:32.326Z,22.68
2019-04-23T12:53:10.600Z,26.15
2019-04-23T13:00:38.877Z,16.17
2019-04-23T13:03:09.766Z,18.52
2019-04-23T13:05:34.130Z,22.20
2019-04-23T13:08:30.421Z,21.15
2019-04-23T13:10:41.867Z,24.33
2019-04-23T13:15:40.815Z,25.93
2019-04-23T13:20:38.456Z,26.60
2019-04-23T13:23:16.924Z,27.40
2019-04-23T13:25:57.154Z,20.47
2019-04-23T13:28:35.171Z,23.26
2019-04-23T13:31:06.454Z,21.20
2019-04-23T13:33:40.664Z,24.05
2019-04-23T13:36:08.146Z,27.20
2019-04-23T13:38:38.869Z,24.55
2019-04-23T13:41:10.129Z,25.60
2019-04-23T13:46:14.142Z,21.55
2019-04-23T13:48:34.026Z,23.65
2019-04-23T13:51:18.946Z,28.15
2019-04-23T13:53:49.720Z,25.60
2019-04-23T13:56:11.145Z,18.50
2019-04-23T13:58:46.708Z,28.60
2019-04-23T14:01:18.203Z,30.40
2019-04-23T14:03:59.970Z,19.30
2019-04-23T14:06:24.481Z,20.15
2019-04-23T14:11:26.330Z,29.27
2019-04-23T14:16:34.018Z,24.45
2019-04-23T14:18:55.932Z,19.97
2019-04-23T14:24:04.552Z,20.57
2019-04-23T14:28:59.174Z,24.47
2019-04-23T14:31:19.002Z,22.10
2019-04-23T14:34:01.343Z,21.68
2019-04-23T14:36:27.003Z,22.05
2019-04-23T14:38:53.850Z,23.40
2019-04-23T14:41:23.419Z,19.62
2019-04-23T14:44:05.331Z,18.23
2019-04-23T14:48:57.332Z,24.92
2019-04-23T14:51:30.913Z,22.87
2019-04-23T14:56:24.053Z,27.17
2019-04-23T14:59:06.792Z,26.87
2019-04-23T15:09:06.230Z,18.95
2019-04-23T15:14:01.481Z,23.92
2019-04-23T15:16:39.673Z,17.50
2019-04-23T15:24:27.984Z,22.17
2019-04-23T15:29:01.731Z,14.10
2019-04-23T15:31:52.408Z,23.07
2019-04-23T15:34:23.150Z,19.80
2019-04-23T15:39:32.717Z,25.23
2019-04-23T15:42:10.868Z,22.93
2019-04-23T15:44:13.475Z,20.92
2019-04-23T15:46:47.472Z,15.85
2019-04-23T15:51:54.265Z,24.23
2019-04-23T15:54:19.453Z,19.40
2019-04-23T15:57:01.243Z,14.97
2019-04-23T15:59:27.626Z,19.73
2019-04-23T16:01:40.603Z,20.87
2019-04-23T16:03:53.749Z,18.23
2019-04-23T16:06:25.414Z,19.93
2019-04-23T16:09:09.669Z,21.90
2019-04-23T16:11:48.170Z,24.27
2019-04-23T16:16:56.065Z,21.67
2019-04-23T16:19:24.525Z,23.07
2019-04-23T16:22:00.518Z,18.73
2019-04-23T16:24:20.578Z,23.70
2019-04-23T16:27:01.707Z,24.52
2019-04-23T16:29:34.232Z,23.42
2019-04-23T16:32:24.411Z,22.90
2019-04-23T16:37:13.718Z,28.47
2019-04-23T16:39:44.043Z,22.52
2019-04-23T16:42:17.439Z,23.22
2019-04-23T16:44:48.710Z,20.63
2019-04-23T16:47:21.722Z,21.90
2019-04-23T16:49:46.091Z,21.13
2019-04-23T16:52:20.070Z,19.23
2019-04-23T16:54:50.563Z,27.77
2019-04-23T16:57:35.883Z,24.85
2019-04-23T17:00:03.004Z,22.97
2019-04-23T17:02:21.391Z,21.75
2019-04-23T17:04:53.013Z,30.03
2019-04-23T17:07:12.068Z,27.32
2019-04-23T17:10:12.931Z,32.43
2019-04-23T17:12:45.844Z,29.57
2019-04-23T17:17:37.976Z,24.30
2019-04-23T17:20:16.064Z,30.75
2019-04-23T17:22:51.068Z,19.57
2019-04-23T17:25:17.620Z,26.77
2019-04-23T17:27:59.554Z,25.17
2019-04-23T17:33:13.820Z,27.57
2019-04-23T17:35:40.238Z,21.56
2019-04-23T17:38:19.338Z,25.52
2019-04-23T17:41:05.771Z,31.17
2019-04-23T17:43:31.528Z,34.43
2019-04-23T17:46:08.915Z,24.85
2019-04-23T17:48:34.744Z,25.95
2019-04-23T17:51:19.442Z,36.75
2019-04-23T17:54:06.993Z,24.05
2019-04-23T17:56:34.298Z,36.30
2019-04-23T17:59:07.314Z,22.50
2019-04-23T18:02:14.698Z,32.10
2019-04-23T18:04:10.464Z,24.30
2019-04-23T18:06:41.198Z,28.73
2019-04-23T18:09:13.991Z,31.30
2019-04-23T18:11:39.712Z,27.85
2019-04-23T18:14:08.427Z,23.35
2019-04-23T18:19:14.644Z,28.90
2019-04-23T18:24:22.658Z,22.10
2019-04-23T18:27:01.399Z,26.80
2019-04-23T18:29:40.388Z,24.25
2019-04-23T18:32:12.773Z,27.85
2019-04-23T18:34:56.891Z,23.57
2019-04-23T18:37:10.763Z,23.10
2019-04-23T18:39:43.727Z,22.40
2019-04-23T18:42:20.479Z,24.47
2019-04-23T18:44:43.577Z,23.83
2019-04-23T18:47:25.204Z,22.70
2019-04-23T18:49:45.032Z,31.40
2019-04-23T18:52:25.953Z,23.85
2019-04-23T18:54:48.845Z,25.07
2019-04-23T19:02:37.288Z,26.73
2019-04-23T19:05:08.523Z,34.60
2019-04-23T19:07:50.190Z,31.57
2019-04-23T19:13:02.585Z,28.70
2019-04-23T19:15:37.116Z,29.70
2019-04-23T19:18:14.709Z,29.60
2019-04-23T19:23:27.293Z,31.60
2019-04-23T19:28:26.701Z,36.67
2019-04-23T19:30:46.190Z,33.77
2019-04-23T19:33:25.402Z,27.60
2019-04-23T19:43:12.103Z,27.73
2019-04-23T19:45:58.064Z,31.13
2019-04-23T19:48:26.544Z,32.28
2019-04-23T19:53:25.328Z,28.00
2019-04-23T19:56:03.847Z,29.60
2019-04-23T19:58:32.478Z,35.38
2019-04-23T20:11:08.018Z,39.03
2019-04-23T20:16:10.859Z,33.98
2019-04-23T20:21:03.743Z,36.17
2019-04-23T20:34:31.146Z,32.03
2019-04-23T20:36:49.529Z,30.90
2019-04-23T20:44:37.340Z,28.77
2019-04-23T20:47:00.234Z,32.67
2019-04-23T20:57:24.927Z,30.10
2019-04-23T21:00:01.856Z,35.20
2019-04-23T21:02:34.780Z,34.38
2019-04-23T21:04:58.939Z,32.53
2019-04-23T21:07:29.787Z,40.52
2019-04-23T21:10:12.418Z,36.43
2019-04-23T21:12:41.770Z,40.52
2019-04-23T21:17:26.273Z,35.15
2019-04-23T21:20:08.852Z,32.93
2019-04-23T21:22:17.229Z,41.73
2019-04-23T21:24:55.591Z,29.20
2019-04-23T21:27:38.477Z,31.42
2019-04-23T21:30:09.136Z,34.67
2019-04-23T21:32:52.597Z,36.13
2019-04-23T21:35:16.676Z,34.20
2019-04-23T21:38:46.411Z,42.73
2019-04-23T21:40:45.081Z,30.70
2019-04-23T21:45:37.647Z,34.92
2019-04-23T21:50:37.397Z,32.33
2019-04-23T21:55:39.177Z,40.00
2019-04-23T22:00:41.202Z,34.23
2019-04-23T22:05:42.872Z,27.65
2019-04-23T22:08:02.492Z,32.10
2019-04-23T22:10:40.719Z,30.38
2019-04-23T22:15:44.900Z,32.08
2019-04-23T22:18:10.813Z,31.48
2019-04-23T22:20:43.708Z,27.07
2019-04-23T22:25:52.645Z,32.30
2019-04-23T22:28:10.370Z,36.15
2019-04-23T22:30:50.798Z,31.56
2019-04-23T22:33:14.084Z,29.23
2019-04-23T22:35:54.333Z,28.47
2019-04-23T22:38:20.740Z,28.65
2019-04-23T22:40:41.481Z,28.40
2019-04-23T22:45:53.414Z,33.67
2019-04-23T22:48:13.836Z,25.83
2019-04-23T22:50:57.517Z,32.57
2019-04-23T22:53:16.843Z,26.48
2019-04-23T22:55:57.312Z,29.17
2019-04-23T22:58:11.501Z,33.93
2019-04-23T23:01:00.441Z,33.17
2019-04-23T23:03:29.356Z,30.10
2019-04-23T23:08:37.885Z,31.70
2019-04-23T23:10:57.289Z,34.45
2019-04-23T23:13:33.405Z,34.43
2019-04-23T23:16:01.350Z,32.27
2019-04-23T23:18:35.850Z,37.28
2019-04-23T23:21:00.762Z,31.90
2019-04-23T23:26:06.717Z,32.97
2019-04-23T23:33:35.815Z,33.07
2019-04-23T23:36:10.718Z,38.00
2019-04-23T23:41:10.484Z,37.65
2019-04-23T23:43:29.711Z,32.15
2019-04-23T23:48:35.596Z,32.42
2019-04-23T23:51:11.611Z,33.70
2019-04-23T23:56:10.937Z,33.70
2019-04-23T23:58:52.617Z,31.80
